createdAt,value
2023-02-05T00:02:18.216Z,11.27
2023-02-05T00:04:45.107Z,10.27
2023-02-05T00:07:11.957Z,13.85
2023-02-05T00:09:40.953Z,15.10
2023-02-05T00:12:08.141Z,14.18
2023-02-05T00:14:34.960Z,13.40
2023-02-05T00:17:01.785Z,13.93
2023-02-05T00:19:31.713Z,11.73
2023-02-05T00:21:58.630Z,10.98
2023-02-05T00:24:25.580Z,10.60
2023-02-05T00:26:52.464Z,10.10
2023-02-05T00:29:19.395Z,10.13
2023-02-05T00:31:49.409Z,10.90
2023-02-05T00:34:17.229Z,10.68
2023-02-05T00:36:44.114Z,10.60
2023-02-05T00:39:12.221Z,10.07
2023-02-05T00:41:39.089Z,11.13
2023-02-05T00:44:06.950Z,10.60
2023-02-05T00:46:33.888Z,9.63
2023-02-05T00:49:00.764Z,11.30
2023-02-05T00:51:27.864Z,10.20
2023-02-05T00:53:54.713Z,9.52
2023-02-05T00:56:21.829Z,10.23
2023-02-05T00:58:50.011Z,10.38
2023-02-05T01:01:17.415Z,10.73
2023-02-05T01:03:44.506Z,10.50
2023-02-05T01:06:11.330Z,9.90
2023-02-05T01:08:38.157Z,10.20
2023-02-05T01:11:08.678Z,9.90
2023-02-05T01:13:35.636Z,10.50
2023-02-05T01:16:02.616Z,9.70
2023-02-05T01:18:29.532Z,8.90
2023-02-05T01:20:56.426Z,8.57
2023-02-05T01:23:23.277Z,9.50
2023-02-05T01:25:50.167Z,8.98
2023-02-05T01:28:17.053Z,9.13
2023-02-05T01:30:51.458Z,8.50
2023-02-05T01:33:19.281Z,8.35
2023-02-05T01:35:46.511Z,9.10
2023-02-05T01:38:17.000Z,9.63
2023-02-05T01:40:43.923Z,10.50
2023-02-05T01:43:14.128Z,10.98
2023-02-05T01:46:03.836Z,8.23
2023-02-05T01:48:42.251Z,8.02
2023-02-05T01:51:13.723Z,8.60
2023-02-05T01:53:42.622Z,9.35
2023-02-05T01:56:22.476Z,10.23
2023-02-05T01:59:03.515Z,9.43
2023-02-05T02:01:32.167Z,9.77
2023-02-05T02:04:04.761Z,8.80
2023-02-05T02:06:35.347Z,9.48
2023-02-05T02:09:06.326Z,10.95
2023-02-05T02:11:41.250Z,11.43
2023-02-05T02:14:11.923Z,12.48
2023-02-05T02:16:40.754Z,13.68
2023-02-05T02:19:34.684Z,13.25
2023-02-05T02:22:30.531Z,12.45
2023-02-05T02:25:40.577Z,11.15
2023-02-05T02:28:41.099Z,10.63
2023-02-05T02:31:31.321Z,10.45
2023-02-05T02:34:32.738Z,9.30
2023-02-05T02:37:17.797Z,9.27
2023-02-05T02:40:04.112Z,9.45
2023-02-05T02:42:57.690Z,13.07
2023-02-05T02:45:30.969Z,11.23
2023-02-05T02:48:01.098Z,12.57
2023-02-05T02:50:34.816Z,12.40
2023-02-05T02:53:24.105Z,11.25
2023-02-05T02:55:55.470Z,9.50
2023-02-05T02:58:36.361Z,8.05
2023-02-05T03:01:06.900Z,9.05
2023-02-05T03:03:41.062Z,9.68
2023-02-05T03:06:11.610Z,12.82
2023-02-05T03:09:13.270Z,9.65
2023-02-05T03:11:40.417Z,10.57
2023-02-05T03:14:07.362Z,10.60
2023-02-05T03:16:34.295Z,9.45
2023-02-05T03:19:02.918Z,10.13
2023-02-05T03:21:41.304Z,10.07
2023-02-05T03:24:09.167Z,10.20
2023-02-05T03:26:38.270Z,11.88
2023-02-05T03:29:17.269Z,13.40
2023-02-05T03:32:11.897Z,13.75
2023-02-05T03:35:17.368Z,14.77
2023-02-05T03:38:32.205Z,14.70
2023-02-05T03:41:03.163Z,15.45
2023-02-05T03:44:15.994Z,21.50
2023-02-05T03:47:03.189Z,17.77
2023-02-05T03:49:57.857Z,15.60
2023-02-05T03:52:41.056Z,15.15
2023-02-05T03:55:15.466Z,13.23
2023-02-05T03:58:12.893Z,13.65
2023-02-05T04:00:41.336Z,12.98
2023-02-05T04:03:08.368Z,13.77
2023-02-05T04:05:35.682Z,12.30
2023-02-05T04:08:03.048Z,12.90
2023-02-05T04:10:29.990Z,14.15
2023-02-05T04:12:56.824Z,14.13
2023-02-05T04:15:23.662Z,13.25
2023-02-05T04:17:50.572Z,13.55
2023-02-05T04:20:17.708Z,14.13
2023-02-05T04:22:44.600Z,14.38
2023-02-05T04:25:11.479Z,13.55
2023-02-05T04:27:38.302Z,13.57
2023-02-05T04:30:06.757Z,13.77
2023-02-05T04:32:33.590Z,13.45
2023-02-05T04:35:00.454Z,13.23
2023-02-05T04:37:27.387Z,13.65
2023-02-05T04:39:54.232Z,13.15
2023-02-05T04:42:21.128Z,13.95
2023-02-05T04:44:48.033Z,12.77
2023-02-05T04:47:14.858Z,14.30
2023-02-05T04:49:41.738Z,13.90
2023-02-05T04:52:08.698Z,13.95
2023-02-05T04:54:37.816Z,15.20
2023-02-05T04:57:04.826Z,14.45
2023-02-05T05:13:01.809Z,17.10
2023-02-05T05:15:28.969Z,17.33
2023-02-05T05:17:56.000Z,15.07
2023-02-05T05:20:23.127Z,16.73
2023-02-05T05:22:50.480Z,16.20
2023-02-05T05:25:18.141Z,15.50
2023-02-05T05:27:45.357Z,15.63
2023-02-05T05:30:13.313Z,15.55
2023-02-05T05:32:40.503Z,16.45
2023-02-05T05:35:07.996Z,15.85
2023-02-05T05:37:35.159Z,16.13
2023-02-05T05:40:21.120Z,17.20
2023-02-05T05:43:06.983Z,14.90
2023-02-05T05:45:34.450Z,17.05
2023-02-05T05:48:02.339Z,14.52
2023-02-05T05:50:29.509Z,13.85
2023-02-05T05:52:56.673Z,13.10
2023-02-05T05:55:23.928Z,12.98
2023-02-05T05:57:51.174Z,12.75
2023-02-05T06:00:19.009Z,13.02
2023-02-05T06:02:46.214Z,12.98
2023-02-05T06:05:13.226Z,12.30
2023-02-05T06:07:40.410Z,12.77
2023-02-05T06:10:08.466Z,12.63
2023-02-05T06:12:35.521Z,12.00
2023-02-05T06:15:02.691Z,12.70
2023-02-05T06:17:29.826Z,13.25
2023-02-05T06:19:56.858Z,13.48
2023-02-05T06:22:23.912Z,13.35
2023-02-05T06:24:51.060Z,13.45
2023-02-05T06:27:18.468Z,13.27
2023-02-05T06:29:45.481Z,13.95
2023-02-05T06:32:12.508Z,13.80
2023-02-05T06:34:39.659Z,14.68
2023-02-05T06:37:07.537Z,14.13
2023-02-05T06:39:34.483Z,13.65
2023-02-05T06:42:01.581Z,13.90
2023-02-05T06:44:28.585Z,13.90
2023-02-05T06:46:55.600Z,14.95
2023-02-05T06:49:22.969Z,15.63
2023-02-05T06:51:50.111Z,15.35
2023-02-05T06:54:17.402Z,16.35
2023-02-05T06:56:44.726Z,16.40
2023-02-05T06:59:11.790Z,15.57
2023-02-05T07:01:38.843Z,15.95
2023-02-05T07:04:06.178Z,15.93
2023-02-05T07:06:33.291Z,16.60
2023-02-05T07:09:00.482Z,16.45
2023-02-05T07:11:27.630Z,14.82
2023-02-05T07:13:54.904Z,14.80
2023-02-05T07:16:22.262Z,14.43
2023-02-05T07:18:49.440Z,14.15
2023-02-05T07:21:17.623Z,14.40
2023-02-05T07:23:45.427Z,14.80
2023-02-05T07:26:15.966Z,14.98
2023-02-05T07:28:44.756Z,15.13
2023-02-05T07:31:18.721Z,15.65
2023-02-05T07:33:47.397Z,15.68
2023-02-05T07:36:18.380Z,15.82
2023-02-05T07:38:47.469Z,14.77
2023-02-05T07:41:16.622Z,16.02
2023-02-05T07:43:44.027Z,15.07
2023-02-05T07:46:14.275Z,14.23
2023-02-05T07:48:41.317Z,13.98
2023-02-05T07:51:08.499Z,14.35
2023-02-05T07:53:35.596Z,16.27
2023-02-05T07:56:04.944Z,17.40
2023-02-05T07:58:32.236Z,16.80
2023-02-05T08:01:04.349Z,17.77
2023-02-05T08:03:32.017Z,17.85
2023-02-05T08:05:59.363Z,16.88
2023-02-05T08:08:26.379Z,17.20
2023-02-05T08:11:03.600Z,16.95
2023-02-05T08:13:31.519Z,18.35
2023-02-05T08:15:58.782Z,17.73
2023-02-05T08:18:26.177Z,17.50
2023-02-05T08:20:54.392Z,19.42
2023-02-05T08:23:22.301Z,19.45
2023-02-05T08:25:53.965Z,20.60
2023-02-05T08:28:21.404Z,20.58
2023-02-05T08:30:48.563Z,18.30
2023-02-05T08:33:16.129Z,18.67
2023-02-05T08:35:43.293Z,17.52
2023-02-05T08:38:10.432Z,16.88
2023-02-05T08:40:37.520Z,16.85
2023-02-05T08:43:04.719Z,16.27
2023-02-05T08:45:32.028Z,16.95
2023-02-05T08:47:59.145Z,17.05
2023-02-05T08:50:26.295Z,16.80
2023-02-05T08:52:53.675Z,16.60
2023-02-05T08:55:20.833Z,16.05
2023-02-05T08:57:48.099Z,15.90
2023-02-05T09:00:15.842Z,15.88
2023-02-05T09:02:43.767Z,17.55
2023-02-05T09:05:11.578Z,16.70
2023-02-05T09:07:40.087Z,17.05
2023-02-05T09:10:12.966Z,16.50
2023-02-05T09:12:41.039Z,16.48
2023-02-05T09:15:09.676Z,16.83
2023-02-05T09:17:36.937Z,15.70
2023-02-05T09:20:04.919Z,16.77
2023-02-05T09:22:31.948Z,17.02
2023-02-05T09:24:59.421Z,17.40
2023-02-05T09:27:26.521Z,18.10
2023-02-05T09:29:53.443Z,17.27
2023-02-05T09:32:20.532Z,16.95
2023-02-05T09:34:49.412Z,16.25
2023-02-05T09:37:17.572Z,14.80
2023-02-05T09:40:19.070Z,14.35
2023-02-05T09:56:18.429Z,20.38
2023-02-05T09:58:50.328Z,18.33
2023-02-05T10:01:45.102Z,17.27
2023-02-05T10:04:12.434Z,14.80
2023-02-05T10:07:05.100Z,12.38
2023-02-05T10:09:54.279Z,12.70
2023-02-05T10:12:50.247Z,12.05
2023-02-05T10:15:36.448Z,12.43
2023-02-05T10:18:23.782Z,13.07
2023-02-05T10:21:46.554Z,13.07
2023-02-05T10:24:50.548Z,13.77
2023-02-05T10:27:23.783Z,11.75
2023-02-05T10:30:20.619Z,11.32
2023-02-05T10:33:12.102Z,9.57
2023-02-05T10:36:01.261Z,10.77
2023-02-05T10:38:34.759Z,11.07
2023-02-05T10:41:16.713Z,11.98
2023-02-05T10:44:14.789Z,11.63
2023-02-05T10:46:46.061Z,12.25
2023-02-05T10:49:19.001Z,12.73
2023-02-05T10:54:43.438Z,13.90
2023-02-05T10:57:17.508Z,13.30
2023-02-05T11:00:02.118Z,14.10
2023-02-05T11:02:39.258Z,13.82
2023-02-05T11:05:21.458Z,14.02
2023-02-05T11:07:54.361Z,12.80
2023-02-05T11:13:20.197Z,12.00
2023-02-05T11:16:01.471Z,12.30
2023-02-05T11:18:35.994Z,11.90
2023-02-05T11:21:06.304Z,15.20
2023-02-05T11:23:39.688Z,12.60
2023-02-05T11:26:21.164Z,15.30
2023-02-05T11:28:48.094Z,14.35
2023-02-05T11:31:34.944Z,14.32
2023-02-05T11:34:17.323Z,14.88
2023-02-05T11:36:57.725Z,14.47
2023-02-05T11:39:38.635Z,15.05
2023-02-05T11:42:27.585Z,14.25
2023-02-05T11:45:01.871Z,14.73
2023-02-05T11:47:32.345Z,14.82
2023-02-05T11:50:00.342Z,14.45
2023-02-05T11:52:36.861Z,14.73
2023-02-05T11:55:06.217Z,15.57
2023-02-05T11:57:39.267Z,13.63
2023-02-05T12:00:09.171Z,14.88
2023-02-05T12:02:38.596Z,14.73
2023-02-05T12:05:20.995Z,15.63
2023-02-05T12:08:27.832Z,15.55
2023-02-05T12:11:28.518Z,14.55
2023-02-05T12:14:26.495Z,14.40
2023-02-05T12:17:05.082Z,13.27
2023-02-05T12:19:55.912Z,12.45
2023-02-05T12:22:56.986Z,13.88
2023-02-05T12:25:51.550Z,13.45
2023-02-05T12:28:41.541Z,11.85
2023-02-05T12:31:54.067Z,14.10
2023-02-05T12:35:11.926Z,14.13
2023-02-05T12:37:59.870Z,13.60
2023-02-05T12:41:22.403Z,14.77
2023-02-05T12:43:53.590Z,14.73
2023-02-05T12:46:48.985Z,16.05
2023-02-05T12:49:33.685Z,16.63
2023-02-05T12:52:55.868Z,16.48
2023-02-05T12:56:11.222Z,15.68
2023-02-05T12:58:46.310Z,16.08
2023-02-05T13:01:23.977Z,16.10
2023-02-05T13:03:57.032Z,17.38
2023-02-05T13:09:25.842Z,16.42
2023-02-05T13:12:06.497Z,16.45
2023-02-05T13:15:08.472Z,17.20
2023-02-05T13:17:42.146Z,17.77
2023-02-05T13:20:51.390Z,18.48
2023-02-05T13:23:38.183Z,18.63
2023-02-05T13:26:25.461Z,18.88
2023-02-05T13:29:07.890Z,18.77
2023-02-05T13:31:48.646Z,18.90
2023-02-05T13:34:17.731Z,19.75
2023-02-05T13:37:00.562Z,19.88
2023-02-05T13:39:48.191Z,19.05
2023-02-05T13:42:44.406Z,19.65
2023-02-05T13:45:38.513Z,19.73
2023-02-05T13:49:10.281Z,19.48
2023-02-05T13:51:50.987Z,19.70
2023-02-05T13:54:17.955Z,19.27
2023-02-05T13:57:04.708Z,18.95
2023-02-05T13:59:51.398Z,20.35
2023-02-05T14:02:41.116Z,22.10
2023-02-05T14:05:09.849Z,23.58
2023-02-05T14:07:49.010Z,22.95
2023-02-05T14:10:33.516Z,22.33
2023-02-05T14:13:21.484Z,24.05
2023-02-05T14:15:49.869Z,106.20
2023-02-05T14:18:43.172Z,22.27
2023-02-05T14:21:31.830Z,23.20
2023-02-05T14:24:03.014Z,22.70
2023-02-05T14:26:52.827Z,23.23
2023-02-05T14:29:49.737Z,24.75
2023-02-05T14:32:28.593Z,24.80
2023-02-05T14:35:25.503Z,25.67
2023-02-05T14:38:00.334Z,30.50
2023-02-05T14:40:37.126Z,30.40
2023-02-05T14:43:27.293Z,27.90
2023-02-05T14:45:55.094Z,27.80
2023-02-05T14:48:34.161Z,30.75
2023-02-05T14:51:07.979Z,30.45
2023-02-05T14:53:38.024Z,30.10
2023-02-05T14:56:05.900Z,28.10
2023-02-05T14:58:44.463Z,27.75
2023-02-05T15:01:46.240Z,28.20
2023-02-05T15:04:31.932Z,33.15
2023-02-05T15:07:09.996Z,33.13
2023-02-05T15:09:51.579Z,36.55
2023-02-05T15:12:37.245Z,35.25
2023-02-05T15:15:33.820Z,35.85
2023-02-05T15:18:24.272Z,36.85
2023-02-05T15:20:59.067Z,35.90
2023-02-05T15:23:40.423Z,33.53
2023-02-05T15:26:33.887Z,39.85
2023-02-05T15:29:24.420Z,34.95
2023-02-05T15:32:36.061Z,34.88
2023-02-05T15:35:21.230Z,32.72
2023-02-05T15:38:09.986Z,52.95
2023-02-05T15:40:43.973Z,32.67
2023-02-05T15:43:20.496Z,45.63
2023-02-05T15:45:49.737Z,41.90
2023-02-05T15:48:25.877Z,31.23
2023-02-05T15:51:15.554Z,32.25
2023-02-05T15:53:51.093Z,32.45
2023-02-05T15:56:29.563Z,29.83
2023-02-05T15:59:25.006Z,35.35
2023-02-05T16:02:16.378Z,51.80
2023-02-05T16:04:43.301Z,67.55
2023-02-05T16:07:33.895Z,82.47
2023-02-05T16:10:16.008Z,47.40
2023-02-05T16:13:28.563Z,57.67
2023-02-05T16:16:03.559Z,29.50
2023-02-05T16:18:55.507Z,27.17
2023-02-05T16:21:48.194Z,32.88
2023-02-05T16:24:33.032Z,63.40
2023-02-05T16:27:37.891Z,32.85
2023-02-05T16:30:28.634Z,26.27
2023-02-05T16:32:58.962Z,28.55
2023-02-05T16:35:46.241Z,29.70
2023-02-05T16:38:21.209Z,31.17
2023-02-05T16:40:53.506Z,35.72
2023-02-05T16:43:37.284Z,25.98
2023-02-05T16:46:07.453Z,40.45
2023-02-05T16:48:48.110Z,63.15
2023-02-05T16:51:50.372Z,36.88
2023-02-05T16:54:20.561Z,31.00
2023-02-05T16:56:59.271Z,27.80
2023-02-05T16:59:34.022Z,28.83
2023-02-05T17:02:03.177Z,31.20
2023-02-05T17:04:39.090Z,30.88
2023-02-05T17:07:18.717Z,55.95
2023-02-05T17:09:45.739Z,35.47
2023-02-05T17:12:21.762Z,44.80
2023-02-05T17:15:03.235Z,54.55
2023-02-05T17:17:32.590Z,33.30
2023-02-05T17:20:16.116Z,30.52
2023-02-05T17:23:01.335Z,31.00
2023-02-05T17:25:51.378Z,31.20
2023-02-05T17:28:27.897Z,35.72
2023-02-05T17:31:00.445Z,34.55
2023-02-05T17:33:28.708Z,36.83
2023-02-05T17:35:55.771Z,38.17
2023-02-05T17:38:25.915Z,43.20
2023-02-05T17:41:15.719Z,45.58
2023-02-05T17:43:42.808Z,48.95
2023-02-05T17:46:15.039Z,50.53
2023-02-05T17:48:44.753Z,50.20
2023-02-05T17:51:21.038Z,49.97
2023-02-05T17:53:49.628Z,55.83
2023-02-05T17:56:19.291Z,57.60
2023-02-05T17:58:46.420Z,57.83
2023-02-05T18:01:13.701Z,99.50
2023-02-05T18:03:40.772Z,131.35
2023-02-05T18:06:10.054Z,67.05
2023-02-05T18:08:37.327Z,61.95
2023-02-05T18:11:04.784Z,60.22
2023-02-05T18:13:31.729Z,57.83
2023-02-05T18:16:04.737Z,56.92
2023-02-05T18:18:36.419Z,51.88
2023-02-05T18:21:03.966Z,53.58
2023-02-05T18:23:31.546Z,55.05
2023-02-05T18:26:08.357Z,57.53
2023-02-05T18:28:35.594Z,61.70
2023-02-05T18:31:09.496Z,64.78
2023-02-05T18:33:37.340Z,52.15
2023-02-05T18:36:11.483Z,57.50
2023-02-05T18:38:41.079Z,52.28
2023-02-05T18:41:10.269Z,49.10
2023-02-05T18:43:38.436Z,47.35
2023-02-05T18:46:14.263Z,40.53
2023-02-05T18:48:41.581Z,40.95
2023-02-05T18:51:15.669Z,39.45
2023-02-05T18:53:44.581Z,41.60
2023-02-05T18:56:19.094Z,46.85
2023-02-05T18:59:02.854Z,41.22
2023-02-05T19:01:33.636Z,42.20
2023-02-05T19:04:12.588Z,48.90
2023-02-05T19:06:49.513Z,55.50
2023-02-05T19:09:17.529Z,63.13
2023-02-05T19:11:45.847Z,66.35
2023-02-05T19:14:17.307Z,62.53
2023-02-05T19:16:47.739Z,62.65
2023-02-05T19:19:20.017Z,68.78
2023-02-05T19:21:50.907Z,53.83
2023-02-05T19:24:18.669Z,66.22
2023-02-05T19:26:45.898Z,57.85
2023-02-05T19:29:22.007Z,48.17
2023-02-05T19:31:57.735Z,46.92
2023-02-05T19:34:38.399Z,49.35
2023-02-05T19:37:12.189Z,47.92
2023-02-05T19:39:39.889Z,54.75
2023-02-05T19:42:07.116Z,52.65
2023-02-05T19:44:34.250Z,69.10
2023-02-05T19:47:01.130Z,68.43
2023-02-05T19:49:28.238Z,62.00
2023-02-05T19:51:56.508Z,67.85
2023-02-05T19:54:23.416Z,63.63
2023-02-05T19:56:51.042Z,63.15
2023-02-05T19:59:18.741Z,60.33
2023-02-05T20:01:46.559Z,57.10
2023-02-05T20:04:22.349Z,55.95
2023-02-05T20:06:52.066Z,54.60
2023-02-05T20:09:19.385Z,52.70
2023-02-05T20:11:49.718Z,54.78
2023-02-05T20:14:17.403Z,52.38
2023-02-05T20:16:47.589Z,53.08
2023-02-05T20:19:17.451Z,52.67
2023-02-05T20:21:46.671Z,54.80
2023-02-05T20:24:16.185Z,56.83
2023-02-05T20:26:44.631Z,61.35
2023-02-05T20:29:30.685Z,64.40
2023-02-05T20:31:59.039Z,66.30
2023-02-05T20:34:30.550Z,66.15
2023-02-05T20:37:06.943Z,55.08
2023-02-05T20:39:35.274Z,49.50
2023-02-05T20:42:03.231Z,45.38
2023-02-05T20:44:36.089Z,38.13
2023-02-05T20:49:34.951Z,29.55
2023-02-05T20:52:01.957Z,31.08
2023-02-05T20:54:29.232Z,29.88
2023-02-05T20:56:59.343Z,30.52
2023-02-05T20:59:28.673Z,31.88
2023-02-05T21:01:56.257Z,31.88
2023-02-05T21:04:23.443Z,29.92
2023-02-05T21:06:50.688Z,29.15
2023-02-05T21:09:17.831Z,31.40
2023-02-05T21:11:45.178Z,33.90
2023-02-05T21:14:12.359Z,32.97
2023-02-05T21:16:40.469Z,30.98
2023-02-05T21:19:09.042Z,32.65
2023-02-05T21:21:37.336Z,33.95
2023-02-05T21:24:15.538Z,39.67
2023-02-05T21:26:46.839Z,38.10
2023-02-05T21:29:18.482Z,38.47
2023-02-05T21:31:53.067Z,40.25
2023-02-05T21:34:24.965Z,35.05
2023-02-05T21:36:52.737Z,33.38
2023-02-05T21:39:22.531Z,32.42
2023-02-05T21:41:53.994Z,33.22
2023-02-05T21:44:21.448Z,32.88
2023-02-05T21:46:48.387Z,30.92
2023-02-05T21:49:15.549Z,29.55
2023-02-05T21:51:42.540Z,29.50
2023-02-05T21:54:11.052Z,29.10
2023-02-05T21:56:41.822Z,29.48
2023-02-05T21:59:11.862Z,28.48
2023-02-05T22:01:39.676Z,26.95
2023-02-05T22:04:14.485Z,26.75
2023-02-05T22:06:42.300Z,26.02
2023-02-05T22:09:13.094Z,25.67
2023-02-05T22:11:40.587Z,26.60
2023-02-05T22:14:08.410Z,25.33
2023-02-05T22:16:36.572Z,22.02
2023-02-05T22:19:05.348Z,20.90
2023-02-05T22:21:40.606Z,21.02
2023-02-05T22:24:11.446Z,22.13
2023-02-05T22:26:39.260Z,24.27
2023-02-05T22:29:10.540Z,23.42
2023-02-05T22:31:37.436Z,21.85
2023-02-05T22:34:05.460Z,20.42
2023-02-05T22:36:34.725Z,19.48
2023-02-05T22:39:02.430Z,19.98
2023-02-05T22:41:36.374Z,20.55
2023-02-05T22:44:07.435Z,20.55
2023-02-05T22:46:40.302Z,22.33
2023-02-05T22:51:38.528Z,22.67
2023-02-05T22:54:07.254Z,20.73
2023-02-05T22:56:36.943Z,21.65
2023-02-05T22:59:03.943Z,24.85
2023-02-05T23:01:36.134Z,28.30
2023-02-05T23:04:08.601Z,26.52
2023-02-05T23:06:40.158Z,28.70
2023-02-05T23:09:14.827Z,32.03
2023-02-05T23:11:42.463Z,31.70
2023-02-05T23:14:12.842Z,28.73
2023-02-05T23:16:43.107Z,25.63
2023-02-05T23:19:18.720Z,25.67
2023-02-05T23:21:47.158Z,23.98
2023-02-05T23:24:14.911Z,21.75
2023-02-05T23:26:46.710Z,19.88
2023-02-05T23:29:16.117Z,19.65
2023-02-05T23:31:43.381Z,20.50
2023-02-05T23:34:11.093Z,21.13
2023-02-05T23:36:38.316Z,20.20
2023-02-05T23:39:05.692Z,21.35
2023-02-05T23:41:35.984Z,22.15
2023-02-05T23:44:12.122Z,22.42
2023-02-05T23:46:41.145Z,22.38
2023-02-05T23:49:09.226Z,23.58
2023-02-05T23:51:36.438Z,25.73
2023-02-05T23:54:04.562Z,27.77
2023-02-05T23:56:32.398Z,29.23
2023-02-05T23:59:00.009Z,28.58
